createdAt,value
2019-04-25T00:01:26.988Z,68.46
2019-04-25T00:04:01.997Z,70.07
2019-04-25T00:06:37.079Z,70.07
2019-04-25T00:09:11.918Z,69.75
2019-04-25T00:11:47.812Z,69.75
2019-04-25T00:14:22.615Z,66.72
2019-04-25T00:16:56.530Z,67.67
2019-04-25T00:19:31.598Z,68.68
2019-04-25T00:22:05.392Z,66.95
2019-04-25T00:24:39.731Z,67.58
2019-04-25T00:27:13.493Z,66.31
2019-04-25T00:29:47.333Z,66.31
2019-04-25T00:32:21.706Z,65.69
2019-04-25T00:34:55.742Z,67.22
2019-04-25T00:37:29.679Z,66.97
2019-04-25T00:40:06.200Z,65.89
2019-04-25T00:42:41.608Z,64.96
2019-04-25T00:45:15.530Z,64.58
2019-04-25T00:47:52.826Z,66.31
2019-04-25T00:50:26.848Z,68.19
2019-04-25T00:53:01.165Z,68.19
2019-04-25T00:55:35.179Z,66.47
2019-04-25T00:58:09.039Z,66.82
2019-04-25T01:00:43.431Z,66.82
2019-04-25T01:03:17.781Z,65.46
2019-04-25T01:05:53.293Z,65.46
2019-04-25T01:08:27.308Z,66.80
2019-04-25T01:11:01.683Z,68.12
2019-04-25T01:13:35.717Z,68.12
2019-04-25T01:16:09.429Z,68.57
2019-04-25T01:18:43.623Z,67.92
2019-04-25T01:21:17.411Z,67.92
2019-04-25T01:23:51.455Z,69.30
2019-04-25T01:26:25.714Z,69.30
2019-04-25T01:28:59.415Z,68.10
2019-04-25T01:31:33.635Z,65.95
2019-04-25T01:34:07.448Z,65.42
2019-04-25T01:36:41.167Z,67.56
2019-04-25T01:39:14.873Z,67.21
2019-04-25T01:41:49.173Z,68.14
2019-04-25T01:44:24.143Z,68.14
2019-04-25T01:46:58.231Z,68.22
2019-04-25T01:49:33.852Z,68.22
2019-04-25T01:52:07.462Z,68.14
2019-04-25T01:54:41.161Z,68.88
2019-04-25T01:57:14.859Z,68.15
2019-04-25T01:59:49.770Z,68.17
2019-04-25T02:02:23.687Z,66.79
2019-04-25T02:04:59.161Z,68.20
2019-04-25T02:07:33.387Z,66.15
2019-04-25T02:10:07.180Z,67.83
2019-04-25T02:12:40.884Z,67.82
2019-04-25T02:15:14.585Z,67.82
2019-04-25T02:17:48.292Z,67.73
2019-04-25T02:20:23.512Z,67.73
2019-04-25T02:22:57.931Z,68.32
2019-04-25T02:25:33.196Z,68.32
2019-04-25T02:28:07.064Z,67.90
2019-04-25T02:30:40.767Z,68.24
2019-04-25T02:33:14.482Z,68.24
2019-04-25T02:35:48.185Z,68.22
2019-04-25T02:38:24.332Z,68.22
2019-04-25T02:41:00.263Z,68.01
2019-04-25T02:43:36.872Z,69.30
2019-04-25T02:46:10.621Z,69.30
2019-04-25T02:48:44.467Z,68.29
2019-04-25T02:51:18.187Z,68.29
2019-04-25T02:53:53.658Z,66.67
2019-04-25T02:56:34.349Z,66.96
2019-04-25T02:59:06.538Z,65.80
2019-04-25T03:01:38.288Z,66.12
2019-04-25T03:04:14.389Z,65.45
2019-04-25T03:06:48.330Z,65.89
2019-04-25T03:09:22.064Z,66.86
2019-04-25T03:11:55.758Z,66.81
2019-04-25T03:14:29.456Z,65.41
2019-04-25T03:17:05.202Z,67.18
2019-04-25T03:19:38.542Z,67.00
2019-04-25T03:22:15.000Z,67.00
2019-04-25T03:24:48.362Z,68.76
2019-04-25T03:27:22.074Z,68.19
2019-04-25T03:29:55.787Z,68.19
2019-04-25T03:32:29.488Z,67.67
2019-04-25T03:35:04.936Z,69.02
2019-04-25T03:37:43.305Z,68.39
2019-04-25T03:40:16.833Z,68.75
2019-04-25T03:42:50.596Z,68.75
2019-04-25T03:45:24.309Z,66.73
2019-04-25T03:47:58.002Z,66.56
2019-04-25T03:50:31.713Z,66.57
2019-04-25T03:53:06.472Z,66.57
2019-04-25T03:55:40.209Z,67.39
2019-04-25T03:58:14.604Z,65.70
2019-04-25T04:00:48.419Z,66.41
2019-04-25T04:03:23.750Z,66.41
2019-04-25T04:05:57.617Z,66.13
2019-04-25T04:08:31.345Z,66.13
2019-04-25T04:11:07.268Z,66.18
2019-04-25T04:13:40.468Z,66.38
2019-04-25T04:16:14.796Z,66.38
2019-04-25T04:18:49.529Z,66.64
2019-04-25T04:21:25.970Z,66.94
2019-04-25T04:23:59.745Z,66.94
2019-04-25T04:26:33.457Z,66.56
2019-04-25T04:29:07.805Z,66.15
2019-04-25T04:31:43.089Z,66.72
2019-04-25T04:34:17.031Z,67.48
2019-04-25T04:36:50.806Z,67.48
2019-04-25T04:39:24.519Z,66.28
2019-04-25T04:41:58.230Z,67.08
2019-04-25T04:44:31.952Z,67.08
2019-04-25T04:47:06.341Z,66.79
2019-04-25T04:49:40.063Z,67.05
2019-04-25T04:52:14.708Z,66.85
2019-04-25T04:54:49.242Z,66.85
2019-04-25T04:57:31.918Z,66.60
2019-04-25T04:59:59.780Z,65.93
2019-04-25T05:02:33.510Z,67.03
2019-04-25T05:05:07.214Z,67.24
2019-04-25T05:07:40.957Z,67.24
2019-04-25T05:10:17.200Z,66.36
2019-04-25T05:12:50.076Z,66.36
2019-04-25T05:15:24.830Z,65.75
2019-04-25T05:17:58.720Z,67.17
2019-04-25T05:20:34.190Z,66.48
2019-04-25T05:23:08.969Z,67.09
2019-04-25T05:25:44.158Z,67.09
2019-04-25T05:28:19.302Z,67.90
2019-04-25T05:30:53.546Z,66.50
2019-04-25T05:33:27.365Z,65.95
2019-04-25T05:36:01.074Z,66.49
2019-04-25T05:38:34.789Z,67.38
2019-04-25T05:41:08.789Z,67.24
2019-04-25T05:43:43.538Z,67.24
2019-04-25T05:46:17.288Z,66.71
2019-04-25T05:48:50.989Z,67.69
2019-04-25T05:51:25.071Z,66.75
2019-04-25T05:53:59.631Z,66.75
2019-04-25T05:56:33.787Z,66.29
2019-04-25T05:59:07.623Z,66.29
2019-04-25T06:01:41.305Z,66.35
2019-04-25T06:04:15.011Z,67.25
2019-04-25T06:06:48.757Z,65.91
2019-04-25T06:09:24.066Z,66.56
2019-04-25T06:11:58.042Z,65.93
2019-04-25T06:14:33.380Z,65.93
2019-04-25T06:17:07.283Z,66.53
2019-04-25T06:19:40.998Z,66.53
2019-04-25T06:22:15.145Z,65.33
2019-04-25T06:24:49.003Z,65.33
2019-04-25T06:27:24.278Z,64.62
2019-04-25T06:30:00.868Z,64.62
2019-04-25T06:32:35.029Z,63.78
2019-04-25T06:35:08.934Z,63.51
2019-04-25T06:37:43.745Z,63.51
2019-04-25T06:40:17.589Z,64.41
2019-04-25T06:42:51.364Z,64.17
2019-04-25T06:45:25.568Z,63.39
2019-04-25T06:48:00.380Z,64.01
2019-04-25T06:50:35.298Z,64.01
2019-04-25T06:53:09.273Z,62.72
2019-04-25T06:55:43.371Z,62.47
2019-04-25T06:58:18.369Z,62.47
2019-04-25T07:00:58.723Z,61.59
2019-04-25T07:03:27.546Z,61.59
2019-04-25T07:06:03.155Z,61.69
2019-04-25T07:08:36.768Z,61.33
2019-04-25T07:11:10.456Z,61.29
2019-04-25T07:13:44.174Z,60.77
2019-04-25T07:16:17.991Z,60.77
2019-04-25T07:18:53.346Z,61.15
2019-04-25T07:21:28.078Z,61.15
2019-04-25T07:24:01.839Z,60.20
2019-04-25T07:26:39.456Z,60.18
2019-04-25T07:29:11.010Z,60.18
2019-04-25T07:31:44.704Z,61.06
2019-04-25T07:34:18.427Z,59.59
2019-04-25T07:36:53.469Z,58.29
2019-04-25T07:39:27.527Z,58.20
2019-04-25T07:42:01.233Z,58.20
2019-04-25T07:44:47.583Z,59.13
2019-04-25T07:47:10.345Z,59.13
2019-04-25T07:49:44.125Z,56.90
2019-04-25T07:52:17.893Z,56.03
2019-04-25T07:54:51.605Z,56.02
2019-04-25T07:57:25.297Z,53.95
2019-04-25T07:59:59.019Z,53.95
2019-04-25T08:02:34.107Z,53.14
2019-04-25T08:05:08.138Z,53.14
2019-04-25T08:07:43.574Z,53.81
2019-04-25T08:10:17.861Z,52.56
2019-04-25T08:12:51.652Z,52.83
2019-04-25T08:15:25.375Z,52.23
2019-04-25T08:17:59.077Z,53.35
2019-04-25T08:20:34.736Z,53.35
2019-04-25T08:23:08.804Z,51.85
2019-04-25T08:25:43.351Z,51.59
2019-04-25T08:28:17.100Z,51.99
2019-04-25T08:30:50.803Z,51.23
2019-04-25T08:33:24.526Z,51.27
2019-04-25T08:36:06.649Z,51.27
2019-04-25T08:38:34.730Z,50.92
2019-04-25T08:41:08.980Z,49.57
2019-04-25T08:43:45.284Z,49.57
2019-04-25T08:46:18.518Z,50.24
2019-04-25T08:48:53.900Z,48.84
2019-04-25T08:51:27.706Z,48.84
2019-04-25T08:54:01.520Z,48.93
2019-04-25T08:56:36.412Z,48.93
2019-04-25T08:59:10.327Z,49.11
2019-04-25T09:01:45.178Z,47.32
2019-04-25T09:04:18.998Z,48.54
2019-04-25T09:06:53.661Z,48.54
2019-04-25T09:09:27.575Z,48.25
2019-04-25T09:12:01.310Z,48.25
2019-04-25T09:14:36.495Z,47.85
2019-04-25T09:17:10.604Z,48.39
2019-04-25T09:19:45.311Z,46.62
2019-04-25T09:22:19.116Z,45.58
2019-04-25T09:24:54.023Z,45.58
2019-04-25T09:27:27.805Z,46.18
2019-04-25T09:30:01.513Z,46.27
2019-04-25T09:32:35.685Z,46.90
2019-04-25T09:35:09.362Z,46.23
2019-04-25T09:37:44.780Z,45.54
2019-04-25T09:40:18.511Z,45.99
2019-04-25T09:42:53.677Z,46.34
2019-04-25T09:45:27.669Z,46.94
2019-04-25T09:48:01.397Z,45.45
2019-04-25T09:50:35.156Z,46.35
2019-04-25T09:53:20.799Z,46.35
2019-04-25T09:55:46.931Z,44.47
2019-04-25T09:58:19.681Z,43.08
2019-04-25T10:00:53.453Z,42.14
2019-04-25T10:03:27.250Z,43.42
2019-04-25T10:06:00.979Z,43.42
2019-04-25T10:08:34.791Z,43.19
2019-04-25T10:11:08.516Z,43.94
2019-04-25T10:13:46.452Z,42.81
2019-04-25T10:16:20.383Z,41.75
2019-04-25T10:18:54.162Z,41.33
2019-04-25T10:21:27.855Z,42.98
2019-04-25T10:24:01.597Z,41.62
2019-04-25T10:26:35.278Z,41.62
2019-04-25T10:29:09.121Z,41.96
2019-04-25T10:31:44.277Z,41.96
2019-04-25T10:34:18.382Z,42.53
2019-04-25T10:36:53.255Z,42.91
2019-04-25T10:39:27.267Z,42.38
2019-04-25T10:42:00.952Z,42.38
2019-04-25T10:44:34.646Z,42.49
2019-04-25T10:47:08.369Z,43.36
2019-04-25T10:49:42.601Z,42.65
2019-04-25T10:52:16.336Z,42.99
2019-04-25T10:54:50.013Z,42.99
2019-04-25T10:57:26.106Z,44.04
2019-04-25T11:00:06.229Z,44.04
2019-04-25T11:02:34.549Z,42.92
2019-04-25T11:05:08.290Z,42.92
2019-04-25T11:07:42.001Z,42.56
2019-04-25T11:10:15.827Z,42.61
2019-04-25T11:12:49.549Z,42.61
2019-04-25T11:15:23.448Z,43.40
2019-04-25T11:17:57.120Z,43.40
2019-04-25T11:20:30.903Z,42.36
2019-04-25T11:23:04.601Z,42.79
2019-04-25T11:25:38.307Z,44.61
2019-04-25T11:28:11.987Z,44.61
2019-04-25T11:30:46.745Z,42.19
2019-04-25T11:33:20.455Z,42.83
2019-04-25T11:35:56.294Z,42.34
2019-04-25T11:38:30.896Z,43.00
2019-04-25T11:41:04.747Z,43.04
2019-04-25T11:43:38.451Z,41.43
2019-04-25T11:46:13.983Z,42.19
2019-04-25T11:48:48.168Z,42.19
2019-04-25T11:51:24.037Z,41.60
2019-04-25T11:53:58.482Z,41.73
2019-04-25T11:56:32.179Z,41.90
2019-04-25T11:59:05.887Z,41.90
2019-04-25T12:01:39.581Z,41.29
2019-04-25T12:04:14.838Z,41.29
2019-04-25T12:06:48.659Z,40.76
2019-04-25T12:09:23.990Z,41.44
2019-04-25T12:11:57.882Z,40.09
2019-04-25T12:14:31.587Z,40.63
2019-04-25T12:17:05.290Z,39.17
2019-04-25T12:19:38.993Z,39.17
2019-04-25T12:22:13.501Z,40.65
2019-04-25T12:24:47.903Z,38.05
2019-04-25T12:27:21.690Z,38.99
2019-04-25T12:29:55.408Z,39.89
2019-04-25T12:32:29.283Z,39.89
2019-04-25T12:35:04.071Z,38.60
2019-04-25T12:37:39.212Z,39.24
2019-04-25T12:40:14.113Z,38.60
2019-04-25T12:42:47.949Z,37.68
2019-04-25T12:45:21.794Z,37.68
2019-04-25T12:47:57.985Z,37.68
2019-04-25T12:50:30.888Z,36.00
2019-04-25T12:53:04.588Z,36.00
2019-04-25T12:55:38.255Z,36.89
2019-04-25T12:58:13.543Z,36.89
2019-04-25T13:00:52.406Z,36.60
2019-04-25T13:03:24.149Z,37.11
2019-04-25T13:05:58.406Z,37.11
2019-04-25T13:08:32.118Z,36.14
2019-04-25T13:11:08.494Z,35.86
2019-04-25T13:13:41.276Z,35.86
2019-04-25T13:16:14.979Z,35.03
2019-04-25T13:18:48.838Z,34.39
2019-04-25T13:21:23.478Z,34.39
2019-04-25T13:23:58.058Z,35.47
2019-04-25T13:26:33.584Z,34.13
2019-04-25T13:29:07.188Z,33.53
2019-04-25T13:31:40.929Z,33.53
2019-04-25T13:34:14.624Z,33.52
2019-04-25T13:36:48.303Z,32.33
2019-04-25T13:39:22.001Z,32.33
2019-04-25T13:41:58.351Z,32.61
2019-04-25T13:44:31.151Z,32.61
2019-04-25T13:47:05.127Z,32.89
2019-04-25T13:49:38.833Z,29.60
2019-04-25T13:52:13.287Z,29.60
2019-04-25T13:54:47.051Z,29.08
2019-04-25T13:57:21.611Z,29.08
2019-04-25T13:59:55.498Z,26.71
2019-04-25T14:02:34.605Z,26.71
2019-04-25T14:05:08.465Z,28.68
2019-04-25T14:07:42.151Z,28.68
2019-04-25T14:10:15.856Z,28.04
2019-04-25T14:12:49.558Z,27.51
2019-04-25T14:15:25.406Z,28.48
2019-04-25T14:18:03.719Z,26.92
2019-04-25T14:20:37.534Z,27.95
2019-04-25T14:23:13.407Z,27.95
2019-04-25T14:25:46.798Z,28.26
2019-04-25T14:28:20.931Z,27.37
2019-04-25T14:30:55.483Z,24.84
2019-04-25T14:33:29.200Z,26.49
2019-04-25T14:36:03.262Z,27.22
2019-04-25T14:38:37.018Z,27.22
2019-04-25T14:41:10.725Z,25.97
2019-04-25T14:43:46.400Z,25.62
2019-04-25T14:46:19.834Z,25.85
2019-04-25T14:48:53.540Z,26.01
2019-04-25T14:51:28.120Z,26.01
2019-04-25T14:54:01.908Z,25.31
2019-04-25T14:56:35.612Z,25.90
2019-04-25T14:59:09.326Z,25.84
2019-04-25T15:01:45.011Z,25.84
2019-04-25T15:04:18.881Z,25.14
2019-04-25T15:06:52.768Z,26.41
2019-04-25T15:09:26.799Z,26.41
2019-04-25T15:12:00.583Z,26.34
2019-04-25T15:14:34.315Z,24.45
2019-04-25T15:17:08.022Z,24.45
2019-04-25T15:19:41.877Z,26.32
2019-04-25T15:22:15.736Z,26.64
2019-04-25T15:24:49.554Z,26.64
2019-04-25T15:27:24.985Z,25.08
2019-04-25T15:29:58.915Z,26.20
2019-04-25T15:32:32.698Z,27.13
2019-04-25T15:35:06.551Z,25.48
2019-04-25T15:37:40.323Z,27.17
2019-04-25T15:40:14.065Z,27.17
2019-04-25T15:42:47.914Z,27.68
2019-04-25T15:45:21.617Z,27.86
2019-04-25T15:47:58.146Z,28.27
2019-04-25T15:50:31.957Z,28.27
2019-04-25T15:53:05.782Z,28.02
2019-04-25T15:55:39.588Z,27.67
2019-04-25T15:58:14.019Z,27.67
2019-04-25T16:00:47.803Z,28.78
2019-04-25T16:03:21.563Z,28.85
2019-04-25T16:05:55.311Z,34.29
2019-04-25T16:08:29.512Z,34.29
2019-04-25T16:11:03.729Z,35.05
2019-04-25T16:13:37.555Z,35.80
2019-04-25T16:16:11.300Z,35.80
2019-04-25T16:18:45.049Z,36.09
2019-04-25T16:21:18.898Z,36.09
2019-04-25T16:23:52.674Z,36.90
2019-04-25T16:26:26.993Z,42.12
2019-04-25T16:29:01.736Z,42.12
2019-04-25T16:31:35.464Z,43.07
2019-04-25T16:34:09.126Z,44.04
2019-04-25T16:36:42.854Z,44.04
2019-04-25T16:39:16.558Z,43.43
2019-04-25T16:41:50.396Z,43.43
2019-04-25T16:44:24.107Z,41.34
2019-04-25T16:46:57.910Z,44.04
2019-04-25T16:49:32.611Z,42.67
2019-04-25T16:52:06.518Z,42.67
2019-04-25T16:54:40.251Z,43.52
2019-04-25T16:57:13.980Z,43.52
2019-04-25T16:59:47.699Z,42.23
2019-04-25T17:02:32.357Z,42.23
2019-04-25T17:04:56.877Z,41.96
2019-04-25T17:07:30.572Z,41.96
2019-04-25T17:10:07.164Z,41.70
2019-04-25T17:12:40.937Z,43.81
2019-04-25T17:15:14.664Z,44.04
2019-04-25T17:17:48.375Z,43.59
2019-04-25T17:20:22.256Z,43.11
2019-04-25T17:22:55.985Z,43.11
2019-04-25T17:25:30.121Z,41.87
2019-04-25T17:28:05.023Z,43.03
2019-04-25T17:30:38.742Z,43.03
2019-04-25T17:33:13.093Z,43.04
2019-04-25T17:35:46.802Z,43.26
2019-04-25T17:41:11.942Z,41.44
2019-04-25T17:43:45.671Z,42.03
2019-04-25T17:46:19.492Z,42.03
2019-04-25T17:48:53.299Z,43.04
2019-04-25T17:51:27.002Z,43.04
2019-04-25T17:54:00.759Z,42.78
2019-04-25T17:56:34.518Z,42.44
2019-04-25T17:59:08.397Z,42.90
2019-04-25T18:01:42.229Z,42.66
2019-04-25T18:04:16.005Z,42.66
2019-04-25T18:06:49.725Z,42.44
2019-04-25T18:09:23.448Z,42.44
2019-04-25T18:11:57.179Z,42.36
2019-04-25T18:14:30.904Z,42.83
2019-04-25T18:17:04.602Z,43.26
2019-04-25T18:19:38.562Z,43.26
2019-04-25T18:22:13.520Z,44.24
2019-04-25T18:24:47.345Z,44.24
2019-04-25T18:27:21.068Z,43.51
2019-04-25T18:29:54.847Z,44.13
2019-04-25T18:32:28.552Z,42.57
2019-04-25T18:35:02.333Z,42.17
2019-04-25T18:37:37.178Z,42.85
2019-04-25T18:40:11.006Z,43.68
2019-04-25T18:42:44.778Z,43.78
2019-04-25T18:45:18.550Z,43.78
2019-04-25T18:47:52.350Z,43.75
2019-04-25T18:50:26.142Z,43.92
2019-04-25T18:52:59.849Z,44.46
2019-04-25T18:55:33.703Z,44.46
2019-04-25T18:58:07.388Z,44.23
2019-04-25T19:00:41.636Z,45.96
2019-04-25T19:03:22.721Z,45.96
2019-04-25T19:05:51.509Z,46.02
2019-04-25T19:08:25.348Z,46.02
2019-04-25T19:10:59.122Z,46.47
2019-04-25T19:13:32.911Z,46.26
2019-04-25T19:16:06.682Z,48.26
2019-04-25T19:18:41.444Z,46.91
2019-04-25T19:21:15.875Z,47.79
2019-04-25T19:23:49.695Z,47.78
2019-04-25T19:26:23.409Z,47.78
2019-04-25T19:28:57.195Z,47.34
2019-04-25T19:31:30.929Z,49.33
2019-04-25T19:34:04.624Z,49.88
2019-04-25T19:36:38.327Z,50.14
2019-04-25T19:39:12.035Z,49.81
2019-04-25T19:41:45.764Z,49.45
2019-04-25T19:44:19.788Z,49.45
2019-04-25T19:46:53.475Z,49.06
2019-04-25T19:49:27.211Z,48.96
2019-04-25T19:52:00.921Z,48.96
2019-04-25T19:54:34.730Z,48.41
2019-04-25T19:57:08.494Z,48.72
2019-04-25T19:59:43.262Z,48.72
2019-04-25T20:02:17.542Z,48.42
2019-04-25T20:04:51.335Z,48.61
2019-04-25T20:07:25.037Z,48.81
2019-04-25T20:09:58.755Z,48.81
2019-04-25T20:12:32.510Z,49.97
2019-04-25T20:15:06.209Z,51.05
2019-04-25T20:17:39.998Z,51.00
2019-04-25T20:20:13.733Z,51.00
2019-04-25T20:22:48.167Z,50.80
2019-04-25T20:25:21.882Z,50.62
2019-04-25T20:27:56.044Z,50.05
2019-04-25T20:30:29.813Z,51.06
2019-04-25T20:33:03.509Z,51.30
2019-04-25T20:35:37.223Z,51.04
2019-04-25T20:38:10.995Z,50.92
2019-04-25T20:40:45.360Z,51.08
2019-04-25T20:43:20.110Z,50.68
2019-04-25T20:45:54.468Z,50.06
2019-04-25T20:48:28.294Z,50.65
2019-04-25T20:51:02.062Z,50.65
2019-04-25T20:53:35.755Z,49.58
2019-04-25T20:56:09.489Z,50.93
2019-04-25T20:58:43.180Z,50.79
2019-04-25T21:01:16.871Z,49.10
2019-04-25T21:03:50.586Z,50.47
2019-04-25T21:06:24.283Z,49.79
2019-04-25T21:08:57.979Z,48.86
2019-04-25T21:11:31.838Z,50.23
2019-04-25T21:14:05.540Z,50.35
2019-04-25T21:16:39.239Z,50.35
2019-04-25T21:19:13.084Z,50.30
2019-04-25T21:21:46.875Z,50.67
2019-04-25T21:24:20.568Z,50.33
2019-04-25T21:26:54.659Z,51.02
2019-04-25T21:29:28.904Z,51.46
2019-04-25T21:32:02.583Z,51.46
2019-04-25T21:34:36.720Z,52.17
2019-04-25T21:37:10.695Z,50.59
2019-04-25T21:39:45.837Z,51.58
2019-04-25T21:42:19.961Z,51.58
2019-04-25T21:44:54.148Z,51.31
2019-04-25T21:47:27.966Z,50.77
2019-04-25T21:50:03.087Z,51.84
2019-04-25T21:52:37.172Z,53.38
2019-04-25T21:55:11.268Z,53.01
2019-04-25T21:57:45.228Z,53.48
2019-04-25T22:00:19.314Z,52.88
2019-04-25T22:02:53.846Z,52.88
2019-04-25T22:05:28.545Z,53.09
2019-04-25T22:08:02.601Z,51.93
2019-04-25T22:10:36.691Z,51.42
2019-04-25T22:13:16.155Z,51.42
2019-04-25T22:15:45.966Z,52.04
2019-04-25T22:18:19.944Z,51.59
2019-04-25T22:20:53.637Z,51.59
2019-04-25T22:23:27.363Z,52.15
2019-04-25T22:26:01.328Z,52.40
2019-04-25T22:28:35.307Z,52.46
2019-04-25T22:31:09.275Z,51.47
2019-04-25T22:33:43.441Z,51.47
2019-04-25T22:36:17.997Z,52.71
2019-04-25T22:38:51.684Z,52.43
2019-04-25T22:41:25.383Z,52.43
2019-04-25T22:43:59.518Z,52.96
2019-04-25T22:46:34.509Z,52.82
2019-04-25T22:49:08.598Z,52.60
2019-04-25T22:51:42.283Z,52.26
2019-04-25T22:54:16.378Z,52.74
2019-04-25T22:56:50.311Z,53.23
2019-04-25T22:59:24.278Z,53.23
2019-04-25T23:01:58.156Z,53.20
2019-04-25T23:04:32.220Z,53.21
2019-04-25T23:07:05.985Z,54.41
2019-04-25T23:09:39.696Z,53.91
2019-04-25T23:12:13.780Z,54.23
2019-04-25T23:14:47.754Z,53.92
2019-04-25T23:17:21.452Z,53.92
2019-04-25T23:19:55.316Z,54.58
2019-04-25T23:22:29.012Z,54.58
2019-04-25T23:25:05.954Z,53.26
2019-04-25T23:27:39.808Z,53.26
2019-04-25T23:30:14.492Z,53.21
2019-04-25T23:32:48.318Z,53.95
2019-04-25T23:35:29.192Z,55.29
2019-04-25T23:37:57.422Z,55.29
2019-04-25T23:40:31.112Z,55.05
2019-04-25T23:43:05.211Z,54.93
2019-04-25T23:45:39.146Z,54.12
2019-04-25T23:48:14.469Z,54.12
2019-04-25T23:50:48.227Z,56.91
2019-04-25T23:53:21.929Z,55.11
2019-04-25T23:55:55.634Z,55.11
2019-04-25T23:58:29.343Z,54.71
